sensor_id;sensor_type;location;lat;lon;timestamp;P1;durP1;ratioP1;P2;durP2;ratioP2
21474;SDS011;10899;53.576;9.960;2022-10-16T00:02:16;14.60;;;10.05;;
21474;SDS011;10899;53.576;9.960;2022-10-16T00:04:42;14.55;;;9.88;;
21474;SDS011;10899;53.576;9.960;2022-10-16T00:07:09;15.60;;;10.02;;
21474;SDS011;10899;53.576;9.960;2022-10-16T00:09:35;13.93;;;9.43;;
21474;SDS011;10899;53.576;9.960;2022-10-16T00:12:02;16.23;;;9.57;;
21474;SDS011;10899;53.576;9.960;2022-10-16T00:14:31;13.60;;;9.63;;
21474;SDS011;10899;53.576;9.960;2022-10-16T00:16:58;13.82;;;9.38;;
21474;SDS011;10899;53.576;9.960;2022-10-16T00:19:24;13.02;;;9.05;;
21474;SDS011;10899;53.576;9.960;2022-10-16T00:21:51;12.23;;;9.02;;
21474;SDS011;10899;53.576;9.960;2022-10-16T00:24:18;12.57;;;8.40;;
21474;SDS011;10899;53.576;9.960;2022-10-16T00:26:44;11.93;;;8.52;;
21474;SDS011;10899;53.576;9.960;2022-10-16T00:29:11;11.75;;;8.85;;
21474;SDS011;10899;53.576;9.960;2022-10-16T00:31:37;11.93;;;8.77;;
21474;SDS011;10899;53.576;9.960;2022-10-16T00:34:04;11.90;;;8.60;;
21474;SDS011;10899;53.576;9.960;2022-10-16T00:36:30;11.32;;;8.23;;
21474;SDS011;10899;53.576;9.960;2022-10-16T00:38:57;12.27;;;8.40;;
21474;SDS011;10899;53.576;9.960;2022-10-16T00:41:26;11.52;;;8.07;;
21474;SDS011;10899;53.576;9.960;2022-10-16T00:43:53;13.77;;;8.43;;
21474;SDS011;10899;53.576;9.960;2022-10-16T00:46:21;13.60;;;7.93;;
21474;SDS011;10899;53.576;9.960;2022-10-16T00:48:50;10.82;;;8.07;;
21474;SDS011;10899;53.576;9.960;2022-10-16T00:51:19;9.90;;;7.70;;
21474;SDS011;10899;53.576;9.960;2022-10-16T00:53:48;11.63;;;8.40;;
21474;SDS011;10899;53.576;9.960;2022-10-16T00:56:14;9.65;;;7.70;;
21474;SDS011;10899;53.576;9.960;2022-10-16T00:58:41;10.20;;;7.85;;
21474;SDS011;10899;53.576;9.960;2022-10-16T01:01:07;9.15;;;7.70;;
21474;SDS011;10899;53.576;9.960;2022-10-16T01:03:35;11.23;;;7.55;;
21474;SDS011;10899;53.576;9.960;2022-10-16T01:11:38;9.60;;;7.47;;
21474;SDS011;10899;53.576;9.960;2022-10-16T01:14:08;10.60;;;7.55;;
21474;SDS011;10899;53.576;9.960;2022-10-16T01:16:41;9.98;;;6.95;;
21474;SDS011;10899;53.576;9.960;2022-10-16T01:19:14;8.65;;;6.45;;
21474;SDS011;10899;53.576;9.960;2022-10-16T01:21:43;9.02;;;6.97;;
21474;SDS011;10899;53.576;9.960;2022-10-16T01:26:50;13.50;;;7.68;;
21474;SDS011;10899;53.576;9.960;2022-10-16T01:29:53;9.10;;;6.70;;
21474;SDS011;10899;53.576;9.960;2022-10-16T01:34:43;8.02;;;7.10;;
21474;SDS011;10899;53.576;9.960;2022-10-16T01:37:18;9.15;;;6.43;;
21474;SDS011;10899;53.576;9.960;2022-10-16T01:39:47;7.63;;;6.57;;
21474;SDS011;10899;53.576;9.960;2022-10-16T01:42:17;10.20;;;6.93;;
21474;SDS011;10899;53.576;9.960;2022-10-16T01:44:45;9.20;;;6.10;;
21474;SDS011;10899;53.576;9.960;2022-10-16T01:47:12;8.18;;;6.20;;
21474;SDS011;10899;53.576;9.960;2022-10-16T01:49:40;8.70;;;6.43;;
21474;SDS011;10899;53.576;9.960;2022-10-16T01:52:09;8.75;;;7.18;;
21474;SDS011;10899;53.576;9.960;2022-10-16T01:54:37;8.80;;;6.22;;
21474;SDS011;10899;53.576;9.960;2022-10-16T01:57:04;9.90;;;6.68;;
21474;SDS011;10899;53.576;9.960;2022-10-16T01:59:32;9.00;;;6.43;;
21474;SDS011;10899;53.576;9.960;2022-10-16T02:02:04;7.82;;;6.47;;
21474;SDS011;10899;53.576;9.960;2022-10-16T02:04:34;9.25;;;7.05;;
21474;SDS011;10899;53.576;9.960;2022-10-16T02:07:02;12.15;;;6.80;;
21474;SDS011;10899;53.576;9.960;2022-10-16T02:09:29;8.00;;;6.47;;
21474;SDS011;10899;53.576;9.960;2022-10-16T02:11:56;10.68;;;6.82;;
21474;SDS011;10899;53.576;9.960;2022-10-16T02:14:28;9.88;;;6.63;;
21474;SDS011;10899;53.576;9.960;2022-10-16T02:16:55;9.00;;;6.85;;
21474;SDS011;10899;53.576;9.960;2022-10-16T02:19:21;10.18;;;6.47;;
21474;SDS011;10899;53.576;9.960;2022-10-16T02:29:26;9.48;;;7.22;;
21474;SDS011;10899;53.576;9.960;2022-10-16T02:31:58;8.88;;;7.03;;
21474;SDS011;10899;53.576;9.960;2022-10-16T02:34:26;9.55;;;7.43;;
21474;SDS011;10899;53.576;9.960;2022-10-16T02:36:54;11.85;;;6.80;;
21474;SDS011;10899;53.576;9.960;2022-10-16T02:39:21;10.95;;;7.47;;
21474;SDS011;10899;53.576;9.960;2022-10-16T02:41:47;10.77;;;7.50;;
21474;SDS011;10899;53.576;9.960;2022-10-16T02:44:14;11.80;;;7.88;;
21474;SDS011;10899;53.576;9.960;2022-10-16T02:46:41;10.32;;;7.55;;
21474;SDS011;10899;53.576;9.960;2022-10-16T02:49:07;10.07;;;7.47;;
21474;SDS011;10899;53.576;9.960;2022-10-16T02:51:34;9.90;;;7.55;;
21474;SDS011;10899;53.576;9.960;2022-10-16T02:54:01;11.32;;;7.88;;
21474;SDS011;10899;53.576;9.960;2022-10-16T02:56:27;11.55;;;8.40;;
21474;SDS011;10899;53.576;9.960;2022-10-16T02:58:55;10.55;;;8.27;;
21474;SDS011;10899;53.576;9.960;2022-10-16T03:01:22;10.75;;;8.13;;
21474;SDS011;10899;53.576;9.960;2022-10-16T03:03:49;11.48;;;8.13;;
21474;SDS011;10899;53.576;9.960;2022-10-16T03:06:15;12.00;;;8.40;;
21474;SDS011;10899;53.576;9.960;2022-10-16T03:08:42;10.98;;;8.23;;
21474;SDS011;10899;53.576;9.960;2022-10-16T03:11:08;11.85;;;9.00;;
21474;SDS011;10899;53.576;9.960;2022-10-16T03:13:35;12.32;;;8.73;;
21474;SDS011;10899;53.576;9.960;2022-10-16T03:16:02;14.30;;;9.50;;
21474;SDS011;10899;53.576;9.960;2022-10-16T03:18:28;14.55;;;9.60;;
21474;SDS011;10899;53.576;9.960;2022-10-16T03:20:55;14.25;;;9.77;;
21474;SDS011;10899;53.576;9.960;2022-10-16T03:23:21;14.38;;;10.27;;
21474;SDS011;10899;53.576;9.960;2022-10-16T03:25:48;15.27;;;10.77;;
21474;SDS011;10899;53.576;9.960;2022-10-16T03:28:14;15.07;;;10.85;;
21474;SDS011;10899;53.576;9.960;2022-10-16T03:30:42;15.38;;;10.82;;
21474;SDS011;10899;53.576;9.960;2022-10-16T03:33:09;15.20;;;10.88;;
21474;SDS011;10899;53.576;9.960;2022-10-16T03:35:35;14.25;;;10.73;;
21474;SDS011;10899;53.576;9.960;2022-10-16T03:38:02;15.48;;;11.02;;
21474;SDS011;10899;53.576;9.960;2022-10-16T03:40:28;14.10;;;10.05;;
21474;SDS011;10899;53.576;9.960;2022-10-16T03:42:57;13.30;;;10.20;;
21474;SDS011;10899;53.576;9.960;2022-10-16T03:45:24;14.60;;;9.93;;
21474;SDS011;10899;53.576;9.960;2022-10-16T03:47:52;13.45;;;10.00;;
21474;SDS011;10899;53.576;9.960;2022-10-16T03:50:18;12.30;;;9.68;;
21474;SDS011;10899;53.576;9.960;2022-10-16T03:52:45;14.98;;;10.07;;
21474;SDS011;10899;53.576;9.960;2022-10-16T03:55:11;13.82;;;10.25;;
21474;SDS011;10899;53.576;9.960;2022-10-16T03:57:38;14.32;;;10.60;;
21474;SDS011;10899;53.576;9.960;2022-10-16T04:00:04;12.10;;;10.02;;
21474;SDS011;10899;53.576;9.960;2022-10-16T04:02:31;12.70;;;10.05;;
21474;SDS011;10899;53.576;9.960;2022-10-16T04:04:58;12.07;;;9.52;;
21474;SDS011;10899;53.576;9.960;2022-10-16T04:07:24;12.73;;;9.90;;
21474;SDS011;10899;53.576;9.960;2022-10-16T04:09:51;11.98;;;10.05;;
21474;SDS011;10899;53.576;9.960;2022-10-16T04:12:18;14.07;;;10.23;;
21474;SDS011;10899;53.576;9.960;2022-10-16T04:14:45;11.63;;;9.93;;
21474;SDS011;10899;53.576;9.960;2022-10-16T04:17:11;11.52;;;10.15;;
21474;SDS011;10899;53.576;9.960;2022-10-16T04:19:38;14.70;;;10.70;;
21474;SDS011;10899;53.576;9.960;2022-10-16T04:22:04;12.43;;;9.35;;
21474;SDS011;10899;53.576;9.960;2022-10-16T04:24:31;11.82;;;9.45;;
21474;SDS011;10899;53.576;9.960;2022-10-16T04:26:57;11.23;;;9.02;;
21474;SDS011;10899;53.576;9.960;2022-10-16T04:29:24;11.60;;;9.05;;
21474;SDS011;10899;53.576;9.960;2022-10-16T04:31:50;12.30;;;8.85;;
21474;SDS011;10899;53.576;9.960;2022-10-16T04:34:17;13.02;;;9.13;;
21474;SDS011;10899;53.576;9.960;2022-10-16T04:36:44;12.13;;;9.07;;
21474;SDS011;10899;53.576;9.960;2022-10-16T04:39:13;11.50;;;8.65;;
21474;SDS011;10899;53.576;9.960;2022-10-16T04:41:39;11.00;;;9.30;;
21474;SDS011;10899;53.576;9.960;2022-10-16T04:44:06;10.98;;;8.95;;
21474;SDS011;10899;53.576;9.960;2022-10-16T04:46:33;10.57;;;8.35;;
21474;SDS011;10899;53.576;9.960;2022-10-16T04:48:59;12.00;;;9.27;;
21474;SDS011;10899;53.576;9.960;2022-10-16T04:51:26;9.80;;;8.38;;
21474;SDS011;10899;53.576;9.960;2022-10-16T04:53:53;13.55;;;9.02;;
21474;SDS011;10899;53.576;9.960;2022-10-16T04:56:20;10.93;;;8.75;;
21474;SDS011;10899;53.576;9.960;2022-10-16T04:58:47;11.95;;;8.48;;
21474;SDS011;10899;53.576;9.960;2022-10-16T05:01:14;11.73;;;8.30;;
21474;SDS011;10899;53.576;9.960;2022-10-16T05:03:41;10.82;;;8.38;;
21474;SDS011;10899;53.576;9.960;2022-10-16T05:06:07;11.20;;;8.13;;
21474;SDS011;10899;53.576;9.960;2022-10-16T05:08:34;9.48;;;8.07;;
21474;SDS011;10899;53.576;9.960;2022-10-16T05:11:00;9.82;;;7.90;;
21474;SDS011;10899;53.576;9.960;2022-10-16T05:13:27;9.73;;;7.90;;
21474;SDS011;10899;53.576;9.960;2022-10-16T05:15:53;11.30;;;8.52;;
21474;SDS011;10899;53.576;9.960;2022-10-16T05:18:20;10.60;;;7.55;;
21474;SDS011;10899;53.576;9.960;2022-10-16T05:20:47;12.10;;;8.18;;
21474;SDS011;10899;53.576;9.960;2022-10-16T05:23:13;8.65;;;7.43;;
21474;SDS011;10899;53.576;9.960;2022-10-16T05:25:40;9.95;;;7.43;;
21474;SDS011;10899;53.576;9.960;2022-10-16T05:28:06;10.80;;;7.70;;
21474;SDS011;10899;53.576;9.960;2022-10-16T05:30:33;10.02;;;7.95;;
21474;SDS011;10899;53.576;9.960;2022-10-16T05:32:59;10.73;;;7.53;;
21474;SDS011;10899;53.576;9.960;2022-10-16T05:35:26;9.98;;;7.68;;
21474;SDS011;10899;53.576;9.960;2022-10-16T05:37:52;11.10;;;7.97;;
21474;SDS011;10899;53.576;9.960;2022-10-16T05:40:19;10.75;;;7.50;;
21474;SDS011;10899;53.576;9.960;2022-10-16T05:42:45;10.80;;;8.48;;
21474;SDS011;10899;53.576;9.960;2022-10-16T05:45:12;8.98;;;7.53;;
21474;SDS011;10899;53.576;9.960;2022-10-16T05:47:39;9.35;;;7.28;;
21474;SDS011;10899;53.576;9.960;2022-10-16T05:50:06;8.60;;;7.60;;
21474;SDS011;10899;53.576;9.960;2022-10-16T05:52:33;9.60;;;7.45;;
21474;SDS011;10899;53.576;9.960;2022-10-16T05:54:59;8.63;;;7.35;;
21474;SDS011;10899;53.576;9.960;2022-10-16T05:57:26;7.88;;;7.07;;
21474;SDS011;10899;53.576;9.960;2022-10-16T05:59:52;10.45;;;7.40;;
21474;SDS011;10899;53.576;9.960;2022-10-16T06:02:19;8.85;;;6.88;;
21474;SDS011;10899;53.576;9.960;2022-10-16T06:04:45;8.20;;;7.40;;
21474;SDS011;10899;53.576;9.960;2022-10-16T06:07:12;9.00;;;6.65;;
21474;SDS011;10899;53.576;9.960;2022-10-16T06:09:38;10.32;;;7.43;;
21474;SDS011;10899;53.576;9.960;2022-10-16T06:12:05;7.88;;;6.63;;
21474;SDS011;10899;53.576;9.960;2022-10-16T06:14:32;7.82;;;6.50;;
21474;SDS011;10899;53.576;9.960;2022-10-16T06:16:58;8.50;;;6.80;;
21474;SDS011;10899;53.576;9.960;2022-10-16T06:19:25;10.00;;;7.38;;
21474;SDS011;10899;53.576;9.960;2022-10-16T06:21:51;8.82;;;6.95;;
21474;SDS011;10899;53.576;9.960;2022-10-16T06:24:18;7.97;;;6.85;;
21474;SDS011;10899;53.576;9.960;2022-10-16T06:26:45;8.35;;;6.97;;
21474;SDS011;10899;53.576;9.960;2022-10-16T06:29:11;8.77;;;6.45;;
21474;SDS011;10899;53.576;9.960;2022-10-16T06:31:38;8.88;;;6.03;;
21474;SDS011;10899;53.576;9.960;2022-10-16T06:34:04;7.68;;;6.72;;
21474;SDS011;10899;53.576;9.960;2022-10-16T06:36:34;6.90;;;6.18;;
21474;SDS011;10899;53.576;9.960;2022-10-16T06:39:01;8.23;;;6.63;;
21474;SDS011;10899;53.576;9.960;2022-10-16T06:41:30;7.68;;;6.80;;
21474;SDS011;10899;53.576;9.960;2022-10-16T06:43:57;6.80;;;6.10;;
21474;SDS011;10899;53.576;9.960;2022-10-16T06:46:25;8.02;;;6.40;;
21474;SDS011;10899;53.576;9.960;2022-10-16T06:48:54;7.82;;;6.45;;
21474;SDS011;10899;53.576;9.960;2022-10-16T06:51:21;6.47;;;5.85;;
21474;SDS011;10899;53.576;9.960;2022-10-16T06:53:49;7.38;;;6.10;;
21474;SDS011;10899;53.576;9.960;2022-10-16T06:56:18;9.70;;;6.53;;
21474;SDS011;10899;53.576;9.960;2022-10-16T06:58:44;8.23;;;6.85;;
21474;SDS011;10899;53.576;9.960;2022-10-16T07:01:11;6.35;;;5.50;;
21474;SDS011;10899;53.576;9.960;2022-10-16T07:03:39;7.95;;;6.10;;
21474;SDS011;10899;53.576;9.960;2022-10-16T07:06:07;7.50;;;5.93;;
21474;SDS011;10899;53.576;9.960;2022-10-16T07:08:34;7.25;;;6.07;;
21474;SDS011;10899;53.576;9.960;2022-10-16T07:11:02;6.70;;;6.00;;
21474;SDS011;10899;53.576;9.960;2022-10-16T07:13:29;7.35;;;6.10;;
21474;SDS011;10899;53.576;9.960;2022-10-16T07:15:55;7.30;;;5.78;;
21474;SDS011;10899;53.576;9.960;2022-10-16T07:18:22;7.07;;;6.13;;
21474;SDS011;10899;53.576;9.960;2022-10-16T07:20:52;8.07;;;6.22;;
21474;SDS011;10899;53.576;9.960;2022-10-16T07:23:18;7.45;;;5.70;;
21474;SDS011;10899;53.576;9.960;2022-10-16T07:25:45;6.55;;;5.68;;
21474;SDS011;10899;53.576;9.960;2022-10-16T07:28:11;8.00;;;6.10;;
21474;SDS011;10899;53.576;9.960;2022-10-16T07:30:38;6.57;;;5.57;;
21474;SDS011;10899;53.576;9.960;2022-10-16T07:33:04;6.82;;;5.93;;
21474;SDS011;10899;53.576;9.960;2022-10-16T07:35:31;6.10;;;5.38;;
21474;SDS011;10899;53.576;9.960;2022-10-16T07:37:58;6.93;;;5.22;;
21474;SDS011;10899;53.576;9.960;2022-10-16T07:40:24;7.22;;;5.63;;
21474;SDS011;10899;53.576;9.960;2022-10-16T07:42:52;7.07;;;5.65;;
21474;SDS011;10899;53.576;9.960;2022-10-16T07:45:18;7.00;;;5.57;;
21474;SDS011;10899;53.576;9.960;2022-10-16T07:47:45;7.55;;;5.80;;
21474;SDS011;10899;53.576;9.960;2022-10-16T07:50:12;7.30;;;5.55;;
21474;SDS011;10899;53.576;9.960;2022-10-16T07:52:38;5.43;;;4.88;;
21474;SDS011;10899;53.576;9.960;2022-10-16T07:55:05;6.88;;;5.15;;
21474;SDS011;10899;53.576;9.960;2022-10-16T07:57:32;6.72;;;5.60;;
21474;SDS011;10899;53.576;9.960;2022-10-16T07:59:59;6.70;;;5.32;;
21474;SDS011;10899;53.576;9.960;2022-10-16T08:02:25;5.55;;;5.00;;
21474;SDS011;10899;53.576;9.960;2022-10-16T08:04:52;7.40;;;5.97;;
21474;SDS011;10899;53.576;9.960;2022-10-16T08:07:18;7.00;;;5.72;;
21474;SDS011;10899;53.576;9.960;2022-10-16T08:09:48;5.90;;;5.30;;
21474;SDS011;10899;53.576;9.960;2022-10-16T08:12:15;7.63;;;5.43;;
21474;SDS011;10899;53.576;9.960;2022-10-16T08:14:41;7.22;;;5.57;;
21474;SDS011;10899;53.576;9.960;2022-10-16T08:17:08;6.40;;;5.35;;
21474;SDS011;10899;53.576;9.960;2022-10-16T08:19:34;5.85;;;5.10;;
21474;SDS011;10899;53.576;9.960;2022-10-16T08:22:01;6.75;;;5.63;;
21474;SDS011;10899;53.576;9.960;2022-10-16T08:24:27;5.78;;;5.20;;
21474;SDS011;10899;53.576;9.960;2022-10-16T08:26:56;6.25;;;5.00;;
21474;SDS011;10899;53.576;9.960;2022-10-16T08:29:23;6.85;;;5.25;;
21474;SDS011;10899;53.576;9.960;2022-10-16T08:31:49;5.57;;;5.00;;
21474;SDS011;10899;53.576;9.960;2022-10-16T08:34:16;6.97;;;5.70;;
21474;SDS011;10899;53.576;9.960;2022-10-16T08:36:42;6.00;;;5.13;;
21474;SDS011;10899;53.576;9.960;2022-10-16T08:39:09;6.60;;;5.72;;
21474;SDS011;10899;53.576;9.960;2022-10-16T08:44:24;6.30;;;5.43;;
21474;SDS011;10899;53.576;9.960;2022-10-16T08:49:26;6.22;;;5.32;;
21474;SDS011;10899;53.576;9.960;2022-10-16T08:51:53;7.32;;;5.82;;
21474;SDS011;10899;53.576;9.960;2022-10-16T08:54:24;7.57;;;5.35;;
21474;SDS011;10899;53.576;9.960;2022-10-16T08:56:54;6.07;;;5.22;;
21474;SDS011;10899;53.576;9.960;2022-10-16T08:59:21;7.85;;;5.38;;
21474;SDS011;10899;53.576;9.960;2022-10-16T09:01:49;6.47;;;5.40;;
21474;SDS011;10899;53.576;9.960;2022-10-16T09:07:02;6.43;;;4.97;;
21474;SDS011;10899;53.576;9.960;2022-10-16T09:09:43;6.43;;;5.15;;
21474;SDS011;10899;53.576;9.960;2022-10-16T09:12:22;6.20;;;5.20;;
21474;SDS011;10899;53.576;9.960;2022-10-16T09:20:03;6.07;;;5.13;;
21474;SDS011;10899;53.576;9.960;2022-10-16T09:22:33;6.57;;;5.72;;
21474;SDS011;10899;53.576;9.960;2022-10-16T09:25:00;6.80;;;5.85;;
21474;SDS011;10899;53.576;9.960;2022-10-16T09:27:31;6.97;;;5.13;;
21474;SDS011;10899;53.576;9.960;2022-10-16T09:30:10;7.00;;;5.72;;
21474;SDS011;10899;53.576;9.960;2022-10-16T09:32:37;6.35;;;5.47;;
21474;SDS011;10899;53.576;9.960;2022-10-16T09:35:04;8.25;;;5.57;;
21474;SDS011;10899;53.576;9.960;2022-10-16T09:37:37;6.82;;;5.65;;
21474;SDS011;10899;53.576;9.960;2022-10-16T09:40:04;7.18;;;6.05;;
21474;SDS011;10899;53.576;9.960;2022-10-16T09:42:31;8.35;;;5.97;;
21474;SDS011;10899;53.576;9.960;2022-10-16T09:44:58;7.55;;;6.05;;
21474;SDS011;10899;53.576;9.960;2022-10-16T09:47:25;7.13;;;5.68;;
21474;SDS011;10899;53.576;9.960;2022-10-16T09:52:23;7.75;;;6.00;;
21474;SDS011;10899;53.576;9.960;2022-10-16T09:54:50;7.47;;;6.00;;
21474;SDS011;10899;53.576;9.960;2022-10-16T09:57:17;6.38;;;5.45;;
21474;SDS011;10899;53.576;9.960;2022-10-16T09:59:51;7.43;;;6.15;;
21474;SDS011;10899;53.576;9.960;2022-10-16T10:02:38;7.78;;;6.00;;
21474;SDS011;10899;53.576;9.960;2022-10-16T10:05:04;7.85;;;6.00;;
21474;SDS011;10899;53.576;9.960;2022-10-16T10:07:38;7.13;;;6.05;;
21474;SDS011;10899;53.576;9.960;2022-10-16T10:10:06;7.40;;;5.85;;
21474;SDS011;10899;53.576;9.960;2022-10-16T10:12:45;6.25;;;5.60;;
21474;SDS011;10899;53.576;9.960;2022-10-16T10:15:12;6.47;;;5.82;;
21474;SDS011;10899;53.576;9.960;2022-10-16T10:17:51;8.25;;;5.90;;
21474;SDS011;10899;53.576;9.960;2022-10-16T10:20:32;7.45;;;6.00;;
21474;SDS011;10899;53.576;9.960;2022-10-16T10:23:00;7.45;;;6.22;;
21474;SDS011;10899;53.576;9.960;2022-10-16T10:25:36;6.57;;;5.75;;
21474;SDS011;10899;53.576;9.960;2022-10-16T10:30:41;7.03;;;5.72;;
21474;SDS011;10899;53.576;9.960;2022-10-16T10:38:46;6.65;;;6.00;;
21474;SDS011;10899;53.576;9.960;2022-10-16T10:57:02;8.90;;;6.57;;
21474;SDS011;10899;53.576;9.960;2022-10-16T11:02:24;7.15;;;6.45;;
21474;SDS011;10899;53.576;9.960;2022-10-16T11:04:56;9.38;;;6.60;;
21474;SDS011;10899;53.576;9.960;2022-10-16T11:07:26;7.38;;;6.00;;
21474;SDS011;10899;53.576;9.960;2022-10-16T11:10:03;8.60;;;6.65;;
21474;SDS011;10899;53.576;9.960;2022-10-16T11:12:44;6.90;;;6.18;;
21474;SDS011;10899;53.576;9.960;2022-10-16T11:15:23;8.38;;;6.40;;
21474;SDS011;10899;53.576;9.960;2022-10-16T11:20:57;7.82;;;6.22;;
21474;SDS011;10899;53.576;9.960;2022-10-16T11:25:46;6.88;;;5.65;;
21474;SDS011;10899;53.576;9.960;2022-10-16T11:28:25;7.28;;;6.40;;
21474;SDS011;10899;53.576;9.960;2022-10-16T11:30:57;7.30;;;6.43;;
21474;SDS011;10899;53.576;9.960;2022-10-16T11:33:30;8.75;;;6.30;;
21474;SDS011;10899;53.576;9.960;2022-10-16T11:41:09;7.03;;;6.13;;
21474;SDS011;10899;53.576;9.960;2022-10-16T11:43:41;7.60;;;5.93;;
21474;SDS011;10899;53.576;9.960;2022-10-16T11:46:11;8.50;;;6.38;;
21474;SDS011;10899;53.576;9.960;2022-10-16T11:48:49;7.97;;;6.22;;
21474;SDS011;10899;53.576;9.960;2022-10-16T11:56:16;8.63;;;6.20;;
21474;SDS011;10899;53.576;9.960;2022-10-16T12:01:24;7.15;;;6.32;;
21474;SDS011;10899;53.576;9.960;2022-10-16T12:06:55;8.75;;;6.57;;
21474;SDS011;10899;53.576;9.960;2022-10-16T12:09:28;6.85;;;6.15;;
21474;SDS011;10899;53.576;9.960;2022-10-16T12:11:55;10.02;;;6.75;;
21474;SDS011;10899;53.576;9.960;2022-10-16T12:14:32;6.60;;;5.90;;
21474;SDS011;10899;53.576;9.960;2022-10-16T12:17:45;8.70;;;5.90;;
21474;SDS011;10899;53.576;9.960;2022-10-16T12:22:32;6.88;;;5.90;;
21474;SDS011;10899;53.576;9.960;2022-10-16T12:24:59;6.30;;;5.40;;
21474;SDS011;10899;53.576;9.960;2022-10-16T12:27:29;8.05;;;6.22;;
21474;SDS011;10899;53.576;9.960;2022-10-16T12:30:00;6.13;;;5.53;;
21474;SDS011;10899;53.576;9.960;2022-10-16T12:32:37;7.85;;;6.10;;
21474;SDS011;10899;53.576;9.960;2022-10-16T12:35:17;8.02;;;5.85;;
21474;SDS011;10899;53.576;9.960;2022-10-16T12:37:45;7.50;;;6.05;;
21474;SDS011;10899;53.576;9.960;2022-10-16T12:40:28;7.70;;;6.47;;
21474;SDS011;10899;53.576;9.960;2022-10-16T12:42:55;8.30;;;5.60;;
21474;SDS011;10899;53.576;9.960;2022-10-16T12:45:24;7.70;;;5.93;;
21474;SDS011;10899;53.576;9.960;2022-10-16T12:47:52;6.85;;;6.03;;
21474;SDS011;10899;53.576;9.960;2022-10-16T12:50:23;7.57;;;6.25;;
21474;SDS011;10899;53.576;9.960;2022-10-16T12:52:50;7.18;;;5.78;;
21474;SDS011;10899;53.576;9.960;2022-10-16T12:55:17;8.90;;;5.75;;
21474;SDS011;10899;53.576;9.960;2022-10-16T12:58:31;8.23;;;6.22;;
21474;SDS011;10899;53.576;9.960;2022-10-16T13:06:13;9.38;;;5.72;;
21474;SDS011;10899;53.576;9.960;2022-10-16T13:19:16;9.38;;;5.70;;
21474;SDS011;10899;53.576;9.960;2022-10-16T13:24:52;7.28;;;6.07;;
21474;SDS011;10899;53.576;9.960;2022-10-16T13:27:33;8.18;;;5.82;;
21474;SDS011;10899;53.576;9.960;2022-10-16T13:32:37;6.72;;;5.63;;
21474;SDS011;10899;53.576;9.960;2022-10-16T13:35:15;7.05;;;5.47;;
21474;SDS011;10899;53.576;9.960;2022-10-16T13:37:44;7.40;;;5.75;;
21474;SDS011;10899;53.576;9.960;2022-10-16T13:40:21;8.57;;;6.03;;
21474;SDS011;10899;53.576;9.960;2022-10-16T13:42:49;8.07;;;5.40;;
21474;SDS011;10899;53.576;9.960;2022-10-16T13:45:20;8.05;;;5.35;;
21474;SDS011;10899;53.576;9.960;2022-10-16T13:47:47;7.55;;;5.55;;
21474;SDS011;10899;53.576;9.960;2022-10-16T13:50:17;10.02;;;5.88;;
21474;SDS011;10899;53.576;9.960;2022-10-16T13:52:44;6.65;;;5.50;;
21474;SDS011;10899;53.576;9.960;2022-10-16T13:55:12;7.30;;;5.35;;
21474;SDS011;10899;53.576;9.960;2022-10-16T13:57:39;7.07;;;5.50;;
21474;SDS011;10899;53.576;9.960;2022-10-16T14:02:44;6.75;;;6.00;;
21474;SDS011;10899;53.576;9.960;2022-10-16T14:05:13;7.90;;;5.88;;
21474;SDS011;10899;53.576;9.960;2022-10-16T14:07:40;6.38;;;5.35;;
21474;SDS011;10899;53.576;9.960;2022-10-16T14:10:30;6.65;;;5.35;;
21474;SDS011;10899;53.576;9.960;2022-10-16T14:13:02;8.25;;;5.43;;
21474;SDS011;10899;53.576;9.960;2022-10-16T14:15:30;7.88;;;5.65;;
21474;SDS011;10899;53.576;9.960;2022-10-16T14:17:56;6.28;;;5.20;;
21474;SDS011;10899;53.576;9.960;2022-10-16T14:20:24;7.32;;;5.35;;
21474;SDS011;10899;53.576;9.960;2022-10-16T14:23:16;5.78;;;5.18;;
21474;SDS011;10899;53.576;9.960;2022-10-16T14:25:44;5.68;;;4.93;;
21474;SDS011;10899;53.576;9.960;2022-10-16T14:28:19;8.43;;;5.70;;
21474;SDS011;10899;53.576;9.960;2022-10-16T14:30:52;5.82;;;5.10;;
21474;SDS011;10899;53.576;9.960;2022-10-16T14:33:24;8.43;;;5.45;;
21474;SDS011;10899;53.576;9.960;2022-10-16T14:36:01;6.22;;;5.30;;
21474;SDS011;10899;53.576;9.960;2022-10-16T14:38:28;6.20;;;4.95;;
21474;SDS011;10899;53.576;9.960;2022-10-16T14:40:56;6.68;;;4.80;;
21474;SDS011;10899;53.576;9.960;2022-10-16T14:43:45;5.70;;;4.90;;
21474;SDS011;10899;53.576;9.960;2022-10-16T14:46:14;6.18;;;5.57;;
21474;SDS011;10899;53.576;9.960;2022-10-16T14:48:42;6.45;;;5.13;;
21474;SDS011;10899;53.576;9.960;2022-10-16T14:51:13;5.60;;;4.95;;
21474;SDS011;10899;53.576;9.960;2022-10-16T14:53:40;7.20;;;5.00;;
21474;SDS011;10899;53.576;9.960;2022-10-16T14:56:29;6.25;;;5.22;;
21474;SDS011;10899;53.576;9.960;2022-10-16T14:58:53;7.82;;;5.15;;
21474;SDS011;10899;53.576;9.960;2022-10-16T15:01:20;6.47;;;5.13;;
21474;SDS011;10899;53.576;9.960;2022-10-16T15:03:46;6.35;;;5.28;;
21474;SDS011;10899;53.576;9.960;2022-10-16T15:06:14;5.32;;;4.82;;
21474;SDS011;10899;53.576;9.960;2022-10-16T15:08:41;9.57;;;5.47;;
21474;SDS011;10899;53.576;9.960;2022-10-16T15:11:15;5.75;;;4.55;;
21474;SDS011;10899;53.576;9.960;2022-10-16T15:13:42;8.73;;;5.32;;
21474;SDS011;10899;53.576;9.960;2022-10-16T15:16:13;8.70;;;4.90;;
21474;SDS011;10899;53.576;9.960;2022-10-16T15:18:39;5.80;;;4.88;;
21474;SDS011;10899;53.576;9.960;2022-10-16T15:21:06;7.38;;;4.63;;
21474;SDS011;10899;53.576;9.960;2022-10-16T15:23:33;7.07;;;4.70;;
21474;SDS011;10899;53.576;9.960;2022-10-16T15:25:59;6.45;;;4.75;;
21474;SDS011;10899;53.576;9.960;2022-10-16T15:28:26;6.05;;;4.78;;
21474;SDS011;10899;53.576;9.960;2022-10-16T15:30:53;7.32;;;5.30;;
21474;SDS011;10899;53.576;9.960;2022-10-16T15:33:22;5.38;;;4.70;;
21474;SDS011;10899;53.576;9.960;2022-10-16T15:35:49;5.25;;;4.28;;
21474;SDS011;10899;53.576;9.960;2022-10-16T15:38:17;7.40;;;5.07;;
21474;SDS011;10899;53.576;9.960;2022-10-16T15:40:45;6.70;;;4.75;;
21474;SDS011;10899;53.576;9.960;2022-10-16T15:43:11;4.75;;;4.03;;
21474;SDS011;10899;53.576;9.960;2022-10-16T15:45:38;6.55;;;4.50;;
21474;SDS011;10899;53.576;9.960;2022-10-16T15:48:05;5.63;;;4.55;;
21474;SDS011;10899;53.576;9.960;2022-10-16T15:50:32;6.25;;;4.90;;
21474;SDS011;10899;53.576;9.960;2022-10-16T15:52:58;5.72;;;5.03;;
21474;SDS011;10899;53.576;9.960;2022-10-16T15:55:25;4.85;;;4.35;;
21474;SDS011;10899;53.576;9.960;2022-10-16T15:57:51;5.10;;;4.38;;
21474;SDS011;10899;53.576;9.960;2022-10-16T16:00:18;6.53;;;4.80;;
21474;SDS011;10899;53.576;9.960;2022-10-16T16:02:53;5.75;;;4.40;;
21474;SDS011;10899;53.576;9.960;2022-10-16T16:05:21;5.30;;;4.65;;
21474;SDS011;10899;53.576;9.960;2022-10-16T16:07:48;6.35;;;4.53;;
21474;SDS011;10899;53.576;9.960;2022-10-16T16:10:15;6.38;;;4.13;;
21474;SDS011;10899;53.576;9.960;2022-10-16T16:12:41;6.13;;;4.60;;
21474;SDS011;10899;53.576;9.960;2022-10-16T16:15:09;6.05;;;4.45;;
21474;SDS011;10899;53.576;9.960;2022-10-16T16:17:36;5.35;;;4.35;;
21474;SDS011;10899;53.576;9.960;2022-10-16T16:20:03;6.88;;;4.47;;
21474;SDS011;10899;53.576;9.960;2022-10-16T16:22:30;5.68;;;4.28;;
21474;SDS011;10899;53.576;9.960;2022-10-16T16:24:56;4.38;;;3.90;;
21474;SDS011;10899;53.576;9.960;2022-10-16T16:27:23;5.38;;;4.32;;
21474;SDS011;10899;53.576;9.960;2022-10-16T16:29:55;8.02;;;4.40;;
21474;SDS011;10899;53.576;9.960;2022-10-16T16:32:21;7.50;;;4.43;;
21474;SDS011;10899;53.576;9.960;2022-10-16T16:34:48;6.63;;;4.57;;
21474;SDS011;10899;53.576;9.960;2022-10-16T16:37:14;6.80;;;4.35;;
21474;SDS011;10899;53.576;9.960;2022-10-16T16:39:41;6.22;;;4.65;;
21474;SDS011;10899;53.576;9.960;2022-10-16T16:42:07;7.18;;;4.60;;